Embarrass, Minnesota
Current Conditions -  °F | °C
As of 9:13 AM on Friday 19 Dec 2014 (Local Time) from KELO Reporting Station
Overcast Overcast  
Wind Chill: 10°   Ceiling: 900
Heat Index: 19°   Visibility: 10mi
Dew Point: 18°   Wind: 7mph
Humidity: 93%   Direction: 160°SSE
Pressure: 30.2"   Gusts: NA
Location:  47.66°N, 92.2°W
Report Text: KELO 191513Z AUTO 16006KT 10SM OVC009 M07/M08 A3020 RMK AO2
Loading
Personal Weather Stations






























Interactive Weather Map New forecast layout! Learn more

10-Day Weather Forecast

Advertisements
Track Severe Weather on mobile